createdAt,value
2019-05-18T00:01:29.681Z,41.60
2019-05-18T00:03:58.386Z,40.50
2019-05-18T00:06:27.019Z,39.93
2019-05-18T00:08:55.720Z,38.67
2019-05-18T00:11:24.422Z,38.00
2019-05-18T00:13:52.983Z,38.63
2019-05-18T00:16:21.773Z,40.73
2019-05-18T00:18:50.401Z,40.17
2019-05-18T00:21:19.121Z,41.57
2019-05-18T00:23:47.927Z,40.60
2019-05-18T00:26:16.542Z,40.00
2019-05-18T00:28:45.107Z,38.70
2019-05-18T00:31:13.864Z,39.73
2019-05-18T00:33:42.517Z,38.30
2019-05-18T00:36:11.197Z,37.17
2019-05-18T00:38:39.796Z,36.57
2019-05-18T00:41:09.961Z,40.07
2019-05-18T00:43:38.904Z,39.77
2019-05-18T00:46:10.250Z,38.77
2019-05-18T00:48:38.791Z,39.63
2019-05-18T00:51:09.246Z,38.93
2019-05-18T00:53:37.865Z,39.27
2019-05-18T00:56:08.228Z,39.27
2019-05-18T00:58:36.953Z,39.80
2019-05-18T01:01:05.879Z,42.07
2019-05-18T01:03:34.510Z,40.57
2019-05-18T01:06:03.252Z,40.83
2019-05-18T01:08:31.800Z,41.93
2019-05-18T01:11:00.546Z,41.77
2019-05-18T01:13:29.110Z,39.87
2019-05-18T01:15:57.710Z,41.37
2019-05-18T01:18:26.369Z,41.13
2019-05-18T01:20:55.006Z,43.00
2019-05-18T01:23:23.653Z,43.00
2019-05-18T01:25:52.270Z,41.60
2019-05-18T01:28:20.853Z,42.47
2019-05-18T01:30:49.552Z,43.03
2019-05-18T01:33:18.351Z,41.03
2019-05-18T01:35:46.899Z,43.03
2019-05-18T01:38:15.619Z,43.33
2019-05-18T01:40:44.323Z,41.50
2019-05-18T01:43:12.997Z,41.80
2019-05-18T01:45:41.865Z,41.57
2019-05-18T01:48:14.213Z,41.43
2019-05-18T01:50:40.944Z,41.70
2019-05-18T01:53:09.575Z,41.87
2019-05-18T01:55:38.142Z,42.53
2019-05-18T01:58:08.591Z,43.47
2019-05-18T02:00:37.158Z,43.77
2019-05-18T02:03:05.797Z,44.40
2019-05-18T02:05:34.651Z,44.63
2019-05-18T02:08:03.239Z,44.33
2019-05-18T02:10:31.796Z,44.20
2019-05-18T02:13:00.519Z,45.20
2019-05-18T02:15:29.185Z,43.00
2019-05-18T02:17:59.196Z,42.57
2019-05-18T02:20:29.482Z,42.57
2019-05-18T02:22:58.089Z,43.93
2019-05-18T02:25:28.229Z,44.53
2019-05-18T02:27:57.033Z,44.00
2019-05-18T02:30:25.618Z,43.60
2019-05-18T02:32:54.159Z,43.37
2019-05-18T02:35:22.958Z,42.57
2019-05-18T02:37:51.485Z,42.87
2019-05-18T02:40:20.262Z,45.03
2019-05-18T02:42:48.967Z,42.57
2019-05-18T02:45:17.697Z,43.70
2019-05-18T02:47:46.823Z,42.97
2019-05-18T02:50:15.787Z,43.23
2019-05-18T02:52:44.327Z,43.07
2019-05-18T02:55:12.935Z,42.40
2019-05-18T02:57:41.636Z,43.83
2019-05-18T03:00:12.023Z,43.53
2019-05-18T03:02:40.567Z,41.77
2019-05-18T03:05:09.645Z,43.00
2019-05-18T03:07:38.192Z,43.17
2019-05-18T03:10:08.516Z,42.67
2019-05-18T03:12:37.277Z,43.90
2019-05-18T03:15:09.376Z,43.10
2019-05-18T03:17:38.214Z,44.27
2019-05-18T03:20:07.579Z,42.47
2019-05-18T03:22:36.390Z,41.00
2019-05-18T03:25:06.917Z,43.47
2019-05-18T03:27:35.690Z,41.00
2019-05-18T03:30:07.781Z,42.87
2019-05-18T03:32:36.420Z,43.10
2019-05-18T03:35:05.683Z,42.13
2019-05-18T03:37:34.519Z,42.90
2019-05-18T03:40:04.784Z,41.83
2019-05-18T03:42:33.362Z,41.23
2019-05-18T03:45:02.127Z,41.77
2019-05-18T03:47:30.728Z,42.10
2019-05-18T03:49:59.522Z,40.63
2019-05-18T03:52:28.391Z,40.70
2019-05-18T03:54:56.924Z,42.20
2019-05-18T03:57:25.496Z,42.30
2019-05-18T03:59:54.265Z,42.70
2019-05-18T04:02:22.906Z,42.07
2019-05-18T04:04:51.461Z,41.87
2019-05-18T04:07:20.099Z,41.80
2019-05-18T04:09:48.573Z,40.57
2019-05-18T04:12:17.225Z,42.53
2019-05-18T04:14:45.931Z,41.37
2019-05-18T04:17:14.405Z,42.33
2019-05-18T04:19:46.854Z,41.30
2019-05-18T04:22:16.082Z,43.23
2019-05-18T04:24:52.833Z,41.23
2019-05-18T04:27:21.490Z,40.87
2019-05-18T04:29:50.203Z,41.57
2019-05-18T04:32:18.823Z,40.63
2019-05-18T04:34:47.586Z,44.17
2019-05-18T04:37:16.292Z,42.03
2019-05-18T04:39:44.935Z,41.70
2019-05-18T04:42:13.621Z,40.00
2019-05-18T04:44:42.086Z,40.90
2019-05-18T04:47:10.580Z,41.00
2019-05-18T04:49:39.382Z,41.13
2019-05-18T04:52:08.485Z,41.50
2019-05-18T04:54:37.010Z,41.70
2019-05-18T04:57:05.801Z,40.73
2019-05-18T04:59:34.358Z,41.70
2019-05-18T05:02:02.995Z,41.17
2019-05-18T05:04:31.724Z,42.07
2019-05-18T05:07:00.267Z,43.43
2019-05-18T05:09:28.871Z,40.87
2019-05-18T05:11:57.613Z,42.63
2019-05-18T05:14:26.166Z,41.63
2019-05-18T05:16:54.715Z,40.77
2019-05-18T05:19:23.435Z,39.47
2019-05-18T05:21:52.057Z,40.50
2019-05-18T05:24:20.608Z,43.20
2019-05-18T05:26:49.311Z,41.00
2019-05-18T05:29:17.961Z,42.57
2019-05-18T05:31:46.465Z,43.23
2019-05-18T05:34:15.276Z,41.10
2019-05-18T05:36:43.893Z,41.10
2019-05-18T05:39:12.573Z,41.07
2019-05-18T05:41:41.050Z,40.63
2019-05-18T05:44:10.827Z,41.43
2019-05-18T05:46:39.547Z,41.73
2019-05-18T05:49:08.171Z,41.60
2019-05-18T05:51:37.003Z,41.57
2019-05-18T05:54:05.741Z,41.47
2019-05-18T05:56:34.351Z,40.03
2019-05-18T05:59:02.971Z,42.40
2019-05-18T06:01:31.622Z,42.90
2019-05-18T06:04:00.163Z,43.47
2019-05-18T06:06:29.036Z,43.27
2019-05-18T06:08:57.605Z,38.90
2019-05-18T06:11:26.370Z,42.47
2019-05-18T06:13:55.066Z,41.93
2019-05-18T06:16:23.685Z,40.60
2019-05-18T06:18:52.327Z,40.47
2019-05-18T06:21:21.061Z,40.03
2019-05-18T06:23:49.612Z,40.03
2019-05-18T06:26:18.297Z,39.83
2019-05-18T06:28:47.007Z,38.93
2019-05-18T06:31:15.659Z,40.97
2019-05-18T06:33:47.229Z,39.13
2019-05-18T06:36:20.203Z,37.40
2019-05-18T06:38:48.901Z,39.73
2019-05-18T06:41:17.679Z,40.53
2019-05-18T06:43:46.299Z,40.43
2019-05-18T06:46:14.922Z,41.53
2019-05-18T06:48:43.680Z,40.90
2019-05-18T06:51:12.191Z,40.50
2019-05-18T06:53:40.764Z,39.00
2019-05-18T06:56:10.594Z,40.03
2019-05-18T06:58:39.296Z,42.17
2019-05-18T07:01:07.907Z,42.00
2019-05-18T07:03:36.686Z,41.43
2019-05-18T07:06:05.369Z,40.57
2019-05-18T07:08:34.069Z,43.13
2019-05-18T07:11:02.728Z,41.53
2019-05-18T07:13:31.293Z,43.37
2019-05-18T07:16:00.025Z,44.40
2019-05-18T07:18:28.574Z,44.50
2019-05-18T07:20:57.242Z,44.10
2019-05-18T07:23:25.943Z,43.23
2019-05-18T07:25:54.959Z,43.80
2019-05-18T07:28:23.854Z,43.70
2019-05-18T07:30:52.349Z,44.00
2019-05-18T07:33:20.961Z,44.40
2019-05-18T07:35:49.791Z,43.03
2019-05-18T07:38:18.377Z,44.87
2019-05-18T07:40:47.006Z,44.03
2019-05-18T07:43:15.614Z,44.90
2019-05-18T07:45:44.294Z,44.77
2019-05-18T07:48:13.085Z,42.03
2019-05-18T07:50:41.750Z,44.13
2019-05-18T07:53:10.297Z,43.50
2019-05-18T07:55:39.049Z,42.27
2019-05-18T07:58:08.045Z,43.00
2019-05-18T08:00:36.641Z,41.73
2019-05-18T08:03:05.483Z,43.83
2019-05-18T08:05:34.095Z,44.37
2019-05-18T08:08:02.584Z,41.77
2019-05-18T08:10:38.679Z,43.90
2019-05-18T08:13:07.786Z,43.30
2019-05-18T08:15:36.995Z,43.87
2019-05-18T08:18:05.943Z,44.63
2019-05-18T08:20:34.594Z,42.80
2019-05-18T08:23:03.273Z,42.83
2019-05-18T08:25:32.087Z,43.30
2019-05-18T08:28:00.766Z,43.67
2019-05-18T08:30:29.601Z,43.17
2019-05-18T08:32:58.220Z,43.80
2019-05-18T08:35:27.414Z,41.37
2019-05-18T08:37:56.258Z,41.97
2019-05-18T08:40:24.855Z,43.13
2019-05-18T08:42:53.721Z,42.23
2019-05-18T08:45:22.451Z,43.17
2019-05-18T08:47:51.121Z,42.33
2019-05-18T08:50:19.992Z,42.13
2019-05-18T08:52:48.479Z,44.37
2019-05-18T08:55:17.323Z,41.57
2019-05-18T09:02:57.744Z,43.27
2019-05-18T09:05:26.453Z,42.77
2019-05-18T09:07:55.266Z,41.30
2019-05-18T09:10:24.019Z,43.37
2019-05-18T09:12:52.521Z,42.33
2019-05-18T09:15:21.207Z,43.33
2019-05-18T09:17:49.898Z,44.50
2019-05-18T09:20:20.597Z,76.37
2019-05-18T09:22:49.134Z,45.10
2019-05-18T09:25:18.011Z,42.63
2019-05-18T09:27:46.575Z,43.23
2019-05-18T09:30:15.656Z,42.47
2019-05-18T09:32:44.331Z,40.57
2019-05-18T09:35:13.521Z,41.50
2019-05-18T09:37:42.390Z,42.20
2019-05-18T09:40:11.069Z,42.43
2019-05-18T09:42:39.826Z,42.90
2019-05-18T09:45:09.486Z,42.87
2019-05-18T09:47:38.051Z,41.83
2019-05-18T09:50:07.533Z,42.20
2019-05-18T09:52:44.678Z,41.53
2019-05-18T09:55:09.117Z,40.40
2019-05-18T09:57:37.922Z,43.20
2019-05-18T10:00:08.955Z,41.77
2019-05-18T10:02:37.911Z,42.10
2019-05-18T10:05:07.320Z,42.57
2019-05-18T10:07:35.943Z,41.30
2019-05-18T10:10:08.874Z,40.90
2019-05-18T10:12:37.847Z,38.92
2019-05-18T10:15:10.508Z,41.37
2019-05-18T10:17:39.148Z,40.00
2019-05-18T10:20:09.241Z,41.30
2019-05-18T10:22:51.228Z,43.30
2019-05-18T10:25:08.561Z,43.40
2019-05-18T10:27:37.162Z,41.70
2019-05-18T10:30:07.410Z,41.03
2019-05-18T10:32:36.154Z,40.30
2019-05-18T10:35:06.473Z,40.43
2019-05-18T10:37:35.056Z,40.87
2019-05-18T10:40:05.903Z,39.00
2019-05-18T10:42:34.522Z,39.37
2019-05-18T10:45:03.225Z,40.33
2019-05-18T10:47:32.005Z,40.77
2019-05-18T10:50:00.643Z,39.30
2019-05-18T10:52:29.462Z,40.73
2019-05-18T10:54:58.296Z,40.33
2019-05-18T10:57:26.848Z,38.97
2019-05-18T10:59:56.398Z,37.38
2019-05-18T11:02:25.094Z,38.13
2019-05-18T11:04:54.024Z,36.80
2019-05-18T11:07:22.750Z,38.23
2019-05-18T11:09:51.377Z,36.33
2019-05-18T11:12:19.999Z,33.28
2019-05-18T11:14:48.689Z,32.25
2019-05-18T11:17:17.233Z,35.23
2019-05-18T11:19:45.915Z,33.25
2019-05-18T11:22:14.666Z,32.15
2019-05-18T11:24:43.147Z,30.80
2019-05-18T11:27:11.844Z,33.00
2019-05-18T11:29:40.543Z,28.05
2019-05-18T11:32:09.275Z,26.82
2019-05-18T11:34:37.959Z,27.60
2019-05-18T11:37:06.744Z,25.97
2019-05-18T11:39:35.457Z,27.32
2019-05-18T11:42:04.151Z,21.42
2019-05-18T11:44:33.041Z,25.75
2019-05-18T11:47:01.601Z,25.97
2019-05-18T11:49:30.296Z,27.42
2019-05-18T11:51:58.976Z,23.83
2019-05-18T11:54:27.570Z,21.80
2019-05-18T11:56:56.299Z,24.55
2019-05-18T11:59:24.820Z,22.20
2019-05-18T12:01:53.328Z,22.67
2019-05-18T12:04:22.220Z,25.05
2019-05-18T12:06:50.854Z,28.38
2019-05-18T12:09:19.545Z,27.50
2019-05-18T12:11:48.312Z,25.02
2019-05-18T12:14:16.935Z,23.15
2019-05-18T12:16:45.573Z,24.45
2019-05-18T12:19:14.453Z,21.30
2019-05-18T12:21:43.113Z,24.30
2019-05-18T12:24:15.534Z,26.45
2019-05-18T12:26:42.117Z,24.57
2019-05-18T12:29:10.794Z,24.98
2019-05-18T12:31:39.276Z,23.35
2019-05-18T12:34:08.022Z,21.10
2019-05-18T12:36:36.599Z,22.30
2019-05-18T12:39:06.705Z,22.45
2019-05-18T12:41:35.548Z,22.30
2019-05-18T12:44:04.658Z,20.52
2019-05-18T12:46:33.157Z,23.45
2019-05-18T12:49:01.901Z,23.80
2019-05-18T12:51:30.553Z,24.92
2019-05-18T12:53:59.101Z,23.95
2019-05-18T12:56:27.862Z,26.97
2019-05-18T12:58:56.417Z,25.37
2019-05-18T13:01:25.100Z,24.43
2019-05-18T13:03:54.002Z,24.72
2019-05-18T13:06:22.623Z,24.07
2019-05-18T13:08:51.476Z,26.68
2019-05-18T13:11:20.186Z,26.23
2019-05-18T13:13:48.800Z,25.37
2019-05-18T13:16:17.442Z,27.20
2019-05-18T13:18:46.284Z,24.85
2019-05-18T13:21:14.898Z,24.80
2019-05-18T13:23:43.594Z,24.93
2019-05-18T13:26:12.284Z,24.23
2019-05-18T13:28:40.900Z,27.02
2019-05-18T13:31:09.386Z,22.32
2019-05-18T13:33:38.203Z,21.33
2019-05-18T13:36:06.889Z,21.68
2019-05-18T13:38:35.368Z,21.80
2019-05-18T13:41:04.235Z,23.65
2019-05-18T13:43:32.876Z,23.55
2019-05-18T13:46:01.450Z,23.22
2019-05-18T13:48:30.274Z,25.30
2019-05-18T13:50:58.963Z,27.37
2019-05-18T13:53:27.519Z,25.23
2019-05-18T13:55:56.209Z,25.53
2019-05-18T13:58:24.891Z,25.20
2019-05-18T14:00:53.428Z,22.73
2019-05-18T14:03:22.194Z,21.62
2019-05-18T14:05:50.780Z,21.07
2019-05-18T14:08:19.340Z,21.30
2019-05-18T14:10:48.398Z,21.48
2019-05-18T14:13:17.024Z,20.82
2019-05-18T14:15:45.584Z,23.07
2019-05-18T14:18:14.312Z,23.80
2019-05-18T14:20:42.904Z,24.70
2019-05-18T14:23:11.527Z,24.87
2019-05-18T14:25:40.378Z,26.57
2019-05-18T14:28:08.910Z,25.05
2019-05-18T14:30:37.520Z,24.20
2019-05-18T14:33:06.145Z,24.95
2019-05-18T14:35:34.881Z,23.25
2019-05-18T14:38:03.476Z,24.20
2019-05-18T14:40:32.305Z,22.27
2019-05-18T14:43:00.873Z,22.20
2019-05-18T14:45:29.580Z,21.80
2019-05-18T14:47:58.390Z,23.18
2019-05-18T14:50:27.141Z,21.55
2019-05-18T14:52:55.689Z,21.10
2019-05-18T14:55:33.390Z,22.98
2019-05-18T14:57:54.707Z,20.75
2019-05-18T15:00:23.486Z,20.57
2019-05-18T15:02:52.344Z,20.15
2019-05-18T15:05:21.377Z,17.60
2019-05-18T15:07:49.883Z,21.15
2019-05-18T15:10:18.697Z,20.05
2019-05-18T15:12:47.484Z,18.52
2019-05-18T15:15:16.723Z,21.50
2019-05-18T15:17:45.432Z,21.57
2019-05-18T15:20:14.568Z,22.20
2019-05-18T15:22:43.263Z,22.82
2019-05-18T15:25:13.025Z,20.88
2019-05-18T15:27:41.583Z,19.45
2019-05-18T15:30:10.872Z,19.75
2019-05-18T15:32:39.707Z,18.85
2019-05-18T15:35:09.040Z,19.05
2019-05-18T15:37:38.890Z,19.70
2019-05-18T15:40:08.270Z,20.93
2019-05-18T15:42:36.888Z,19.27
2019-05-18T15:45:07.508Z,18.40
2019-05-18T15:47:36.032Z,21.30
2019-05-18T15:50:06.665Z,21.45
2019-05-18T15:52:35.558Z,21.42
2019-05-18T15:55:06.151Z,20.85
2019-05-18T15:57:34.805Z,21.00
2019-05-18T16:00:06.469Z,20.20
2019-05-18T16:02:34.588Z,17.05
2019-05-18T16:05:03.538Z,15.88
2019-05-18T16:07:32.285Z,15.18
2019-05-18T16:10:00.930Z,14.30
2019-05-18T16:12:29.881Z,13.55
2019-05-18T16:14:58.688Z,12.13
2019-05-18T16:17:39.026Z,13.98
2019-05-18T16:19:57.630Z,13.78
2019-05-18T16:22:26.187Z,13.85
2019-05-18T16:24:54.930Z,13.93
2019-05-18T16:27:23.625Z,20.27
2019-05-18T16:29:52.210Z,19.23
2019-05-18T16:32:20.837Z,19.15
2019-05-18T16:34:49.554Z,20.13
2019-05-18T16:37:18.196Z,20.27
2019-05-18T16:39:46.658Z,20.27
2019-05-18T16:42:15.356Z,20.32
2019-05-18T16:44:43.954Z,21.87
2019-05-18T16:47:12.442Z,21.17
2019-05-18T16:49:41.224Z,23.93
2019-05-18T16:52:09.900Z,23.85
2019-05-18T16:54:38.494Z,24.37
2019-05-18T16:57:07.189Z,24.45
2019-05-18T16:59:35.899Z,23.67
2019-05-18T17:02:04.592Z,25.27
2019-05-18T17:04:33.366Z,25.32
2019-05-18T17:07:01.917Z,24.77
2019-05-18T17:09:30.536Z,25.12
2019-05-18T17:11:59.331Z,22.22
2019-05-18T17:14:27.952Z,20.25
2019-05-18T17:16:57.169Z,21.77
2019-05-18T17:19:25.862Z,19.23
2019-05-18T17:21:54.481Z,19.67
2019-05-18T17:24:23.103Z,20.77
2019-05-18T17:26:53.404Z,18.60
2019-05-18T17:29:22.328Z,17.37
2019-05-18T17:31:50.890Z,18.92
2019-05-18T17:34:19.655Z,21.07
2019-05-18T17:36:52.331Z,22.33
2019-05-18T17:39:18.853Z,22.17
2019-05-18T17:41:47.432Z,37.78
2019-05-18T17:44:16.119Z,44.42
2019-05-18T17:46:44.806Z,49.13
2019-05-18T17:49:25.964Z,46.20
2019-05-18T17:51:43.554Z,48.57
2019-05-18T17:54:13.196Z,48.77
2019-05-18T17:56:41.782Z,49.00
2019-05-18T17:59:10.515Z,48.98
2019-05-18T18:01:39.195Z,51.07
2019-05-18T18:04:07.679Z,48.63
2019-05-18T18:06:36.375Z,48.58
2019-05-18T18:09:08.057Z,50.07
2019-05-18T18:11:36.623Z,48.95
2019-05-18T18:14:05.575Z,47.90
2019-05-18T18:16:34.313Z,48.38
2019-05-18T18:19:03.035Z,49.63
2019-05-18T18:21:31.678Z,48.53
2019-05-18T18:24:00.538Z,48.43
2019-05-18T18:26:29.191Z,48.80
2019-05-18T18:28:57.860Z,49.57
2019-05-18T18:31:26.706Z,48.43
2019-05-18T18:33:55.454Z,49.83
2019-05-18T18:36:24.198Z,50.20
2019-05-18T18:38:53.060Z,51.13
2019-05-18T18:41:21.699Z,50.67
2019-05-18T18:43:50.425Z,52.30
2019-05-18T18:46:19.299Z,52.00
2019-05-18T18:48:48.099Z,54.87
2019-05-18T18:51:16.840Z,53.00
2019-05-18T18:53:45.615Z,56.67
2019-05-18T18:56:14.181Z,55.00
2019-05-18T18:58:42.744Z,56.23
2019-05-18T19:01:11.548Z,55.97
2019-05-18T19:03:40.225Z,55.37
2019-05-18T19:06:09.148Z,55.27
2019-05-18T19:08:37.787Z,54.20
2019-05-18T19:11:06.603Z,54.87
2019-05-18T19:13:35.566Z,54.07
2019-05-18T19:16:04.517Z,55.47
2019-05-18T19:18:33.284Z,53.57
2019-05-18T19:21:02.043Z,55.17
2019-05-18T19:23:30.614Z,54.33
2019-05-18T19:25:59.460Z,53.00
2019-05-18T19:28:28.111Z,54.03
2019-05-18T19:30:56.710Z,51.90
2019-05-18T19:33:25.578Z,51.33
2019-05-18T19:35:55.809Z,51.03
2019-05-18T19:38:24.592Z,49.33
2019-05-18T19:40:55.122Z,47.93
2019-05-18T19:43:23.865Z,49.17
2019-05-18T19:45:52.494Z,48.73
2019-05-18T19:48:21.349Z,47.23
2019-05-18T19:50:50.070Z,47.37
2019-05-18T19:53:18.663Z,55.67
2019-05-18T19:55:47.713Z,48.43
2019-05-18T19:58:19.689Z,46.80
2019-05-18T20:00:48.669Z,47.40
2019-05-18T20:06:17.606Z,45.93
2019-05-18T20:08:48.051Z,46.80
2019-05-18T20:11:31.690Z,48.23
2019-05-18T20:14:10.919Z,45.90
2019-05-18T20:19:51.047Z,48.03
2019-05-18T20:22:21.502Z,47.57
2019-05-18T20:28:04.372Z,48.17
2019-05-18T20:36:19.116Z,49.57
2019-05-18T20:38:48.005Z,47.57
2019-05-18T20:41:29.051Z,48.70
2019-05-18T20:44:03.722Z,48.17
2019-05-18T20:46:57.591Z,49.30
2019-05-18T20:49:31.032Z,48.17
2019-05-18T20:52:00.074Z,49.40
2019-05-18T20:54:29.074Z,49.20
2019-05-18T20:56:57.662Z,47.37
2019-05-18T20:59:26.529Z,49.97
2019-05-18T21:02:06.935Z,47.83
2019-05-18T21:04:35.716Z,48.77
2019-05-18T21:07:04.462Z,47.20
2019-05-18T21:09:33.031Z,47.27
2019-05-18T21:12:01.801Z,47.20
2019-05-18T21:14:30.580Z,46.67
2019-05-18T21:16:59.200Z,46.30
2019-05-18T21:19:28.181Z,46.23
2019-05-18T21:21:56.977Z,45.67
2019-05-18T21:24:26.094Z,44.50
2019-05-18T21:26:54.947Z,44.53
2019-05-18T21:29:23.595Z,47.53
2019-05-18T21:31:52.300Z,45.77
2019-05-18T21:34:21.162Z,45.60
2019-05-18T21:36:49.777Z,46.40
2019-05-18T21:39:18.358Z,46.67
2019-05-18T21:41:47.159Z,46.90
2019-05-18T21:44:15.618Z,46.67
2019-05-18T21:46:44.223Z,47.23
2019-05-18T21:49:12.863Z,45.87
2019-05-18T21:51:41.645Z,47.03
2019-05-18T21:54:10.524Z,46.77
2019-05-18T21:56:39.400Z,48.13
2019-05-18T21:59:11.957Z,47.43
2019-05-18T22:01:38.739Z,49.13
2019-05-18T22:04:07.658Z,49.27
2019-05-18T22:06:36.393Z,46.13
2019-05-18T22:09:06.516Z,48.27
2019-05-18T22:11:35.515Z,47.73
2019-05-18T22:14:05.118Z,48.00
2019-05-18T22:16:33.806Z,47.57
2019-05-18T22:19:02.667Z,47.70
2019-05-18T22:21:31.258Z,47.13
2019-05-18T22:24:00.079Z,47.03
2019-05-18T22:26:29.167Z,47.90
2019-05-18T22:28:57.709Z,46.57
2019-05-18T22:31:26.360Z,48.53
2019-05-18T22:33:55.049Z,46.23
2019-05-18T22:36:23.741Z,47.90
2019-05-18T22:38:52.305Z,47.03
2019-05-18T22:41:21.211Z,45.80
2019-05-18T22:43:50.036Z,46.77
2019-05-18T22:46:18.759Z,47.27
2019-05-18T22:48:47.605Z,48.80
2019-05-18T22:51:16.282Z,47.33
2019-05-18T22:53:46.653Z,46.60
2019-05-18T22:56:15.504Z,44.80
2019-05-18T22:58:44.143Z,45.93
2019-05-18T23:01:17.641Z,46.07
2019-05-18T23:04:01.240Z,46.37
2019-05-18T23:06:27.614Z,46.00
2019-05-18T23:09:12.888Z,46.10
2019-05-18T23:11:43.682Z,46.83
2019-05-18T23:14:17.560Z,45.87
2019-05-18T23:16:59.368Z,47.43
2019-05-18T23:19:28.319Z,46.63
2019-05-18T23:22:00.278Z,46.33
2019-05-18T23:24:29.337Z,46.27
2019-05-18T23:27:06.951Z,46.67
2019-05-18T23:32:11.095Z,46.83
2019-05-18T23:34:40.176Z,46.30
2019-05-18T23:37:21.070Z,53.43
2019-05-18T23:39:59.762Z,52.63
2019-05-18T23:42:30.151Z,45.17
2019-05-18T23:45:00.973Z,45.60
2019-05-18T23:47:48.515Z,45.37
2019-05-18T23:50:24.569Z,49.57
2019-05-18T23:52:59.919Z,50.53
2019-05-18T23:55:28.973Z,48.50
